Time;durP1;ratioP1;P1;durP2;ratioP2;P2;SDS_P1;SDS_P2;PMS_P1;PMS_P2;Temp;Humidity;BMP_temperature;BMP_pressure;BME280_temperature;BME280_humidity;BME280_pressure;Samples;Min_cycle;Max_cycle;Signal;HPM_P1;HPM_P2
2021/10/10 00:00:55;;;;;;;36.53;17.35;;;;;;;2.28;100.00;100495.33;4387656;78;28540;-84
2021/10/10 00:06:56;;;;;;;36.30;17.40;;;;;;;2.16;100.00;100495.13;4387025;78;28525;-84
2021/10/10 00:12:59;;;;;;;38.23;17.73;;;;;;;2.21;100.00;100487.09;4366438;79;28470;-84
2021/10/10 00:19:00;;;;;;;35.95;17.23;;;;;;;2.29;100.00;100488.22;4358890;79;28492;-85
2021/10/10 00:25:04;;;;;;;33.55;14.90;;;;;;;2.21;100.00;100488.42;4362000;79;28488;-84
2021/10/10 00:31:05;;;;;;;33.38;14.18;;;;;;;2.19;100.00;100488.23;4374139;79;28495;-84
2021/10/10 00:37:07;;;;;;;33.45;15.45;;;;;;;2.26;100.00;100495.97;4373847;80;28523;-84
2021/10/10 00:43:08;;;;;;;32.00;15.13;;;;;;;2.21;100.00;100490.25;4362136;79;28514;-84
2021/10/10 00:49:10;;;;;;;38.20;17.07;;;;;;;2.21;100.00;100488.42;4352457;79;28481;-84
2021/10/10 00:55:12;;;;;;;34.30;16.40;;;;;;;2.17;100.00;100479.55;4339131;79;28484;-85
2021/10/10 01:01:16;;;;;;;33.42;15.68;;;;;;;2.14;100.00;100470.56;4351341;80;28515;-83
2021/10/10 01:07:20;;;;;;;38.25;15.18;;;;;;;2.12;100.00;100470.69;4346328;80;28573;-83
2021/10/10 01:13:21;;;;;;;30.08;14.23;;;;;;;2.12;100.00;100470.69;4495655;77;28496;-83
2021/10/10 01:19:23;;;;;;;31.15;15.43;;;;;;;2.23;100.00;100463.91;4496079;78;28440;-84
2021/10/10 01:25:24;;;;;;;34.00;15.85;;;;;;;2.28;100.00;100467.97;4532389;77;28482;-84
2021/10/10 01:31:26;;;;;;;29.52;15.03;;;;;;;2.14;100.00;100462.59;4520484;77;28487;-85
2021/10/10 01:37:27;;;;;;;33.08;15.43;;;;;;;1.99;100.00;100451.09;4514982;77;28476;-84
2021/10/10 01:43:28;;;;;;;34.10;15.60;;;;;;;2.02;100.00;100448.62;4532590;77;28477;-84
2021/10/10 01:49:30;;;;;;;29.02;13.83;;;;;;;2.04;100.00;100445.38;4510773;77;28452;-86
2021/10/10 01:55:31;;;;;;;38.13;16.65;;;;;;;1.90;100.00;100443.97;4509445;77;28509;-86
2021/10/10 02:01:33;;;;;;;29.52;15.55;;;;;;;1.87;100.00;100443.75;4514203;77;28516;-86
2021/10/10 02:07:36;;;;;;;29.02;14.68;;;;;;;1.77;100.00;100429.66;4552670;78;28492;-87
2021/10/10 02:13:37;;;;;;;30.88;14.53;;;;;;;1.65;100.00;100426.29;4464962;79;28519;-85
2021/10/10 02:19:39;;;;;;;30.57;14.55;;;;;;;1.70;100.00;100433.83;4552296;78;28434;-86
2021/10/10 02:25:40;;;;;;;30.12;14.47;;;;;;;1.69;100.00;100429.51;4470205;77;28461;-85
2021/10/10 02:31:46;;;;;;;31.60;14.73;;;;;;;1.71;100.00;100435.03;4533151;77;28460;-85
2021/10/10 02:37:45;;;;;;;31.25;15.10;;;;;;;1.67;100.00;100435.79;4507165;78;28586;-84
2021/10/10 02:43:46;;;;;;;32.50;14.85;;;;;;;1.48;100.00;100428.66;4533209;78;28566;-85
2021/10/10 02:49:49;;;;;;;27.73;14.30;;;;;;;1.44;100.00;100435.70;4538431;78;28498;-83
2021/10/10 02:55:50;;;;;;;31.73;14.47;;;;;;;1.42;100.00;100435.01;4465716;78;28523;-84
2021/10/10 03:01:52;;;;;;;28.15;14.30;;;;;;;1.41;100.00;100433.30;4535924;78;28539;-83
2021/10/10 03:07:53;;;;;;;29.07;14.80;;;;;;;1.44;100.00;100431.73;4496241;78;28523;-85
2021/10/10 03:13:55;;;;;;;32.35;14.58;;;;;;;1.37;100.00;100426.95;4532564;78;28519;-84
2021/10/10 03:19:56;;;;;;;28.32;14.68;;;;;;;1.34;100.00;100425.06;4529142;78;28537;-83
2021/10/10 03:25:57;;;;;;;27.15;13.98;;;;;;;1.30;100.00;100422.34;4506869;78;28452;-82
2021/10/10 03:31:58;;;;;;;29.95;14.55;;;;;;;1.19;100.00;100425.47;4517094;78;28479;-83
2021/10/10 03:38:01;;;;;;;28.32;13.88;;;;;;;1.14;100.00;100429.49;4537881;78;28494;-83
2021/10/10 03:44:03;;;;;;;27.95;13.98;;;;;;;1.13;100.00;100416.72;4541411;78;28536;-83
2021/10/10 03:50:06;;;;;;;33.02;15.18;;;;;;;1.08;100.00;100404.38;4555421;77;28473;-83
2021/10/10 03:56:07;;;;;;;31.95;14.80;;;;;;;1.08;100.00;100394.61;4553398;77;28488;-83
2021/10/10 04:02:08;;;;;;;30.17;14.38;;;;;;;1.08;100.00;100397.76;4531122;78;28458;-85
2021/10/10 04:08:10;;;;;;;25.85;14.20;;;;;;;1.08;100.00;100392.46;4553462;78;28496;-82
2021/10/10 04:14:11;;;;;;;29.00;13.80;;;;;;;1.03;100.00;100394.19;4553501;78;28458;-83
2021/10/10 04:20:16;;;;;;;27.00;13.80;;;;;;;1.05;100.00;100398.04;4553859;78;28459;-83
2021/10/10 04:26:17;;;;;;;30.52;15.13;;;;;;;1.04;100.00;100395.02;4553808;78;28501;-83
2021/10/10 04:32:19;;;;;;;29.72;14.87;;;;;;;0.94;100.00;100391.03;4529333;77;28489;-82
2021/10/10 04:38:21;;;;;;;30.88;13.93;;;;;;;0.80;100.00;100395.73;4548494;78;28564;-82
2021/10/10 04:44:22;;;;;;;34.67;14.53;;;;;;;0.72;100.00;100395.55;4533626;77;28466;-83
2021/10/10 04:50:24;;;;;;;36.48;15.48;;;;;;;0.80;100.00;100392.23;4522608;77;28497;-84
2021/10/10 04:56:28;;;;;;;29.85;14.65;;;;;;;0.71;100.00;100393.03;4374373;79;28519;-82
2021/10/10 05:02:30;;;;;;;32.20;15.07;;;;;;;0.74;100.00;100382.20;4371759;80;28565;-84
2021/10/10 05:08:31;;;;;;;31.87;14.73;;;;;;;0.76;100.00;100389.52;4388339;80;28467;-83
2021/10/10 05:14:33;;;;;;;28.12;14.00;;;;;;;0.82;100.00;100395.58;4368122;80;28533;-83
2021/10/10 05:20:34;;;;;;;29.25;14.68;;;;;;;0.87;100.00;100395.17;4387649;81;28540;-82
2021/10/10 05:26:36;;;;;;;34.48;15.03;;;;;;;0.82;100.00;100397.75;4356856;79;28504;-83
2021/10/10 05:32:37;;;;;;;29.20;14.70;;;;;;;0.86;100.00;100397.00;4377456;80;28498;-83
2021/10/10 05:38:39;;;;;;;27.60;14.40;;;;;;;0.88;100.00;100392.41;4455846;78;28536;-83
2021/10/10 05:44:40;;;;;;;31.12;14.98;;;;;;;0.96;100.00;100394.37;4386929;81;28481;-84
2021/10/10 05:50:41;;;;;;;29.77;14.00;;;;;;;1.05;100.00;100390.91;4388169;80;28458;-85
2021/10/10 05:56:43;;;;;;;32.90;14.98;;;;;;;1.26;100.00;100401.91;4387258;81;28483;-86
2021/10/10 06:02:48;;;;;;;28.35;15.03;;;;;;;1.28;100.00;100399.13;4375942;80;28514;-84
2021/10/10 06:08:49;;;;;;;27.45;14.30;;;;;;;1.31;100.00;100402.83;4550491;78;28461;-84
2021/10/10 06:14:51;;;;;;;31.62;14.50;;;;;;;1.22;100.00;100409.28;4541077;77;28469;-84
2021/10/10 06:20:52;;;;;;;28.55;13.98;;;;;;;1.26;100.00;100401.91;4563067;78;28461;-86
2021/10/10 06:26:54;;;;;;;30.68;14.98;;;;;;;1.45;100.00;100405.56;4562186;77;28509;-83
2021/10/10 06:32:55;;;;;;;31.52;15.90;;;;;;;1.51;100.00;100402.34;4557557;77;28449;-84
2021/10/10 06:38:56;;;;;;;29.80;14.85;;;;;;;1.57;100.00;100391.70;4526954;76;28469;-85
2021/10/10 06:44:58;;;;;;;26.75;14.28;;;;;;;1.72;100.00;100397.41;4562291;76;28454;-85
2021/10/10 06:50:59;;;;;;;29.87;14.13;;;;;;;1.84;100.00;100396.78;4553307;76;28540;-84
2021/10/10 06:57:00;;;;;;;30.35;14.95;;;;;;;2.08;100.00;100394.54;4507233;77;28457;-84
2021/10/10 07:03:02;;;;;;;31.75;15.75;;;;;;;2.20;100.00;100395.70;4519609;77;28509;-86
2021/10/10 07:09:05;;;;;;;29.25;14.00;;;;;;;2.40;100.00;100388.52;4428141;80;28567;-85
2021/10/10 07:15:08;;;;;;;32.95;15.25;;;;;;;2.53;100.00;100382.04;4462065;79;28478;-82
2021/10/10 07:27:23;;;;;;;32.05;15.30;;;;;;;2.51;100.00;100378.23;4440478;80;28504;-85
2021/10/10 07:33:25;;;;;;;33.60;15.58;;;;;;;2.85;100.00;100384.30;4471645;78;28451;-85
2021/10/10 07:39:26;;;;;;;30.08;15.45;;;;;;;3.21;100.00;100376.38;4452228;78;28483;-83
2021/10/10 07:45:27;;;;;;;34.48;16.30;;;;;;;3.26;100.00;100377.77;4434089;79;28480;-81
2021/10/10 07:51:29;;;;;;;33.88;15.35;;;;;;;3.46;100.00;100370.00;4368865;79;28590;-84
2021/10/10 07:57:31;;;;;;;31.12;14.55;;;;;;;3.60;100.00;100378.43;4351556;79;28491;-84
2021/10/10 08:03:32;;;;;;;33.23;15.50;;;;;;;3.88;100.00;100383.15;4366086;80;28607;-89
2021/10/10 08:09:34;;;;;;;30.95;15.98;;;;;;;3.96;100.00;100378.89;4374714;79;28503;-85
2021/10/10 08:15:35;;;;;;;33.63;16.82;;;;;;;4.32;100.00;100374.80;4362043;79;28569;-84
2021/10/10 08:21:39;;;;;;;37.53;17.48;;;;;;;4.36;100.00;100362.86;4364438;79;28515;-84
2021/10/10 08:27:44;;;;;;;29.52;14.78;;;;;;;4.45;100.00;100362.39;4388860;80;28449;-83
2021/10/10 08:33:46;;;;;;;31.17;14.10;;;;;;;4.60;100.00;100362.16;4350792;79;28462;-85
2021/10/10 08:39:47;;;;;;;29.85;15.10;;;;;;;4.62;100.00;100362.49;4370785;79;28462;-84
2021/10/10 08:45:48;;;;;;;31.33;15.88;;;;;;;4.69;100.00;100354.20;4347811;79;28506;-81
2021/10/10 08:51:50;;;;;;;29.95;14.43;;;;;;;4.90;100.00;100349.77;4373476;79;28482;-82
2021/10/10 08:58:03;;;;;;;32.30;15.38;;;;;;;5.05;100.00;100341.99;4360614;79;28511;-79
2021/10/10 09:04:01;;;;;;;32.35;13.88;;;;;;;5.30;100.00;100330.03;4349802;79;28487;-80
2021/10/10 09:10:31;;;;;;;33.23;15.60;;;;;;;5.88;100.00;100323.38;4352642;79;28457;-83
2021/10/10 09:16:35;;;;;;;31.30;15.20;;;;;;;6.23;100.00;100333.88;4364327;79;28481;-81
2021/10/10 09:22:36;;;;;;;32.95;16.20;;;;;;;6.32;100.00;100324.84;4347069;79;28502;-81
2021/10/10 09:28:40;;;;;;;36.38;17.42;;;;;;;6.41;100.00;100319.80;4366787;79;28610;-78
2021/10/10 09:34:41;;;;;;;34.25;15.63;;;;;;;6.58;100.00;100316.23;4343221;80;28513;-83
2021/10/10 09:40:55;;;;;;;31.62;14.28;;;;;;;6.36;99.09;100312.79;4384088;81;28501;-81
2021/10/10 09:46:50;;;;;;;27.62;13.95;;;;;;;6.51;100.00;100304.89;4375575;80;28526;-82
2021/10/10 09:53:11;;;;;;;32.55;15.20;;;;;;;6.59;100.00;100308.55;4379140;79;28612;-85
2021/10/10 09:59:27;;;;;;;29.25;14.28;;;;;;;6.61;100.00;100309.20;4364515;79;28529;-85
2021/10/10 10:05:31;;;;;;;34.67;14.95;;;;;;;6.81;98.67;100301.08;4362021;79;28536;-86
2021/10/10 10:11:43;;;;;;;26.17;13.72;;;;;;;7.00;96.68;100294.97;4339213;79;28439;-85
2021/10/10 10:17:47;;;;;;;32.78;15.38;;;;;;;7.20;98.75;100283.81;4374099;79;28851;-83
2021/10/10 10:23:52;;;;;;;27.87;14.13;;;;;;;7.54;92.29;100283.35;4354391;79;28447;-88
2021/10/10 10:29:56;;;;;;;31.80;14.78;;;;;;;7.67;86.71;100282.74;4350834;79;28554;-83
2021/10/10 10:35:58;;;;;;;27.05;13.68;;;;;;;7.86;84.08;100275.21;4368015;81;28513;-86
2021/10/10 10:42:01;;;;;;;24.43;12.60;;;;;;;7.90;80.49;100273.82;4415640;81;28512;-85
2021/10/10 10:48:07;;;;;;;27.10;12.45;;;;;;;8.28;78.61;100256.02;4368618;81;28499;-85
2021/10/10 10:54:39;;;;;;;24.95;12.18;;;;;;;8.52;74.27;100261.61;4313241;81;28505;-86
2021/10/10 11:00:49;;;;;;;26.23;11.90;;;;;;;8.60;72.21;100252.62;4402533;78;28457;-84
2021/10/10 11:06:59;;;;;;;26.25;12.20;;;;;;;9.01;75.08;100235.14;4382428;79;28495;-82
2021/10/10 11:13:11;;;;;;;24.07;11.63;;;;;;;9.14;67.67;100242.46;4381352;79;28485;-87
2021/10/10 11:19:13;;;;;;;22.40;11.83;;;;;;;9.55;69.72;100245.00;4412205;78;28480;-83
2021/10/10 11:25:14;;;;;;;24.50;11.40;;;;;;;9.48;64.87;100236.36;4375989;79;28460;-82
2021/10/10 11:31:23;;;;;;;24.32;10.48;;;;;;;9.74;67.12;100234.92;4397959;78;28575;-82
2021/10/10 11:37:24;;;;;;;22.67;11.45;;;;;;;10.08;69.57;100224.35;4394696;79;28454;-84
2021/10/10 11:43:28;;;;;;;23.10;11.00;;;;;;;9.98;62.98;100233.28;4405061;78;28494;-84
2021/10/10 11:49:42;;;;;;;22.95;11.70;;;;;;;10.16;66.73;100224.73;4362403;79;28501;-83
2021/10/10 11:55:45;;;;;;;22.98;12.28;;;;;;;10.42;67.08;100224.05;4369074;79;28513;-85
2021/10/10 12:01:54;;;;;;;22.98;11.18;;;;;;;10.07;62.15;100223.23;4349200;79;28518;-86
2021/10/10 12:07:56;;;;;;;23.90;11.40;;;;;;;10.13;62.73;100223.26;4390994;78;28466;-85
2021/10/10 12:13:58;;;;;;;25.65;10.93;;;;;;;10.06;61.72;100206.27;4381856;79;28462;-84
2021/10/10 12:20:20;;;;;;;19.25;9.65;;;;;;;10.27;62.66;100204.00;4376668;79;28532;-84
2021/10/10 12:26:22;;;;;;;20.55;9.93;;;;;;;10.51;62.75;100201.83;4328723;79;28507;-84
2021/10/10 12:32:30;;;;;;;20.15;9.73;;;;;;;10.51;59.06;100203.17;4407011;79;28478;-83
2021/10/10 12:38:45;;;;;;;21.40;9.35;;;;;;;10.34;56.41;100195.95;4359049;79;28534;-84
2021/10/10 12:45:08;;;;;;;18.32;8.03;;;;;;;10.51;57.15;100191.08;4359067;80;28517;-82
2021/10/10 12:51:16;;;;;;;15.45;7.65;;;;;;;10.55;54.93;100185.59;4351291;79;28470;-83
2021/10/10 12:57:20;;;;;;;15.85;8.05;;;;;;;10.75;53.74;100182.13;4374544;79;28466;-84
2021/10/10 13:03:23;;;;;;;18.10;8.47;;;;;;;11.23;52.37;100185.70;4343263;79;28521;-83
2021/10/10 13:09:25;;;;;;;16.97;7.62;;;;;;;11.23;52.37;100185.70;4342846;79;50766;-83
2021/10/10 13:15:29;;;;;;;19.05;8.55;;;;;;;11.45;50.44;100170.13;4351604;79;28562;-82
2021/10/10 13:21:30;;;;;;;19.07;8.28;;;;;;;11.66;50.52;100168.23;4343141;79;28511;-83
2021/10/10 13:27:32;;;;;;;18.02;7.83;;;;;;;12.04;52.19;100157.30;4361463;79;28530;-81
2021/10/10 13:33:36;;;;;;;13.45;6.55;;;;;;;11.91;49.69;100154.91;4324159;80;28549;-82
2021/10/10 13:39:37;;;;;;;13.68;6.70;;;;;;;11.91;48.27;100152.75;4371127;79;28437;-87
2021/10/10 13:45:38;;;;;;;15.50;7.15;;;;;;;12.08;49.39;100156.66;4361551;79;28467;-86
2021/10/10 13:51:39;;;;;;;16.15;6.80;;;;;;;11.97;48.34;100150.53;4366859;79;28503;-86
2021/10/10 13:57:41;;;;;;;12.18;6.65;;;;;;;11.84;49.57;100146.84;4343260;79;28466;-87
2021/10/10 14:03:44;;;;;;;15.25;7.50;;;;;;;12.08;50.07;100144.53;4341415;79;28517;-88
2021/10/10 14:09:47;;;;;;;19.20;8.85;;;;;;;11.96;48.91;100131.36;4355446;79;28625;-86
2021/10/10 14:15:52;;;;;;;19.10;7.95;;;;;;;11.79;49.43;100129.16;4338544;79;28454;-88
2021/10/10 14:21:53;;;;;;;18.25;8.45;;;;;;;11.40;48.87;100130.91;4353717;79;28515;-81
2021/10/10 14:27:54;;;;;;;15.08;8.00;;;;;;;11.73;49.54;100122.45;4452967;76;28479;-81
2021/10/10 14:33:55;;;;;;;14.85;7.50;;;;;;;11.65;49.16;100114.05;4448895;76;28537;-80
2021/10/10 14:39:58;;;;;;;20.55;8.95;;;;;;;11.61;51.24;100114.19;4454870;77;28537;-85
2021/10/10 14:46:00;;;;;;;15.30;7.97;;;;;;;11.38;52.61;100120.87;4429904;77;28465;-82
2021/10/10 14:52:06;;;;;;;19.27;8.70;;;;;;;11.05;51.68;100112.31;4515549;76;28513;-82
2021/10/10 14:58:08;;;;;;;16.60;8.58;;;;;;;10.81;54.02;100119.95;4533704;76;28452;-83
2021/10/10 15:04:10;;;;;;;19.82;9.33;;;;;;;10.62;53.40;100113.53;4537755;76;28480;-84
2021/10/10 15:10:11;;;;;;;16.82;7.62;;;;;;;10.50;55.58;100106.57;4518240;77;28477;-81
2021/10/10 15:16:13;;;;;;;20.72;8.33;;;;;;;10.46;56.65;100102.95;4509533;77;28462;-82
2021/10/10 15:22:15;;;;;;;20.48;8.88;;;;;;;10.18;57.41;100095.81;4542831;76;28491;-80
2021/10/10 15:28:16;;;;;;;20.90;7.80;;;;;;;10.04;57.23;100090.91;4556351;77;28536;-82
2021/10/10 15:34:18;;;;;;;18.62;7.55;;;;;;;9.88;58.15;100088.59;4522073;76;28429;-83
2021/10/10 15:40:19;;;;;;;18.07;7.85;;;;;;;9.77;60.22;100094.02;4554511;78;28614;-81
2021/10/10 15:46:21;;;;;;;17.20;7.78;;;;;;;9.65;60.60;100109.88;4568455;77;28445;-85
2021/10/10 15:52:22;;;;;;;19.12;7.78;;;;;;;9.51;62.05;100104.11;4539228;76;28542;-86
2021/10/10 15:58:23;;;;;;;16.27;7.67;;;;;;;9.40;63.89;100098.80;4521597;77;28499;-87
2021/10/10 16:04:25;;;;;;;20.30;7.78;;;;;;;9.16;66.66;100093.68;4547223;76;28510;-82
2021/10/10 16:10:26;;;;;;;16.00;7.70;;;;;;;9.00;67.28;100089.94;4541187;76;28430;-84
2021/10/10 16:16:28;;;;;;;17.45;7.90;;;;;;;8.79;69.87;100099.67;4514024;77;28462;-82
2021/10/10 16:22:29;;;;;;;17.87;7.90;;;;;;;8.63;71.11;100090.05;4547787;76;28474;-81
2021/10/10 16:28:34;;;;;;;16.35;7.78;;;;;;;8.26;87.56;100091.94;4550626;76;28448;-80
2021/10/10 16:34:48;;;;;;;16.52;7.37;;;;;;;8.08;92.26;100091.34;4522535;76;28470;-79
2021/10/10 16:46:55;;;;;;;17.70;7.78;;;;;;;7.75;89.73;100104.33;4523370;76;28600;-83
2021/10/10 16:52:57;;;;;;;15.50;7.53;;;;;;;7.52;100.00;100098.58;4528121;76;28475;-84
2021/10/10 16:58:58;;;;;;;17.75;7.65;;;;;;;7.13;100.00;100083.60;4536749;76;28451;-81
2021/10/10 17:05:02;;;;;;;16.00;7.80;;;;;;;6.98;100.00;100088.43;4533645;76;28443;-82
2021/10/10 17:11:02;;;;;;;21.12;8.33;;;;;;;6.80;100.00;100082.05;4533784;76;28541;-83
2021/10/10 17:17:05;;;;;;;21.35;9.18;;;;;;;6.64;100.00;100085.20;4519583;76;28569;-83
2021/10/10 17:23:07;;;;;;;18.87;7.75;;;;;;;6.56;100.00;100071.91;4523883;76;28458;-79
2021/10/10 17:29:09;;;;;;;18.10;7.50;;;;;;;6.43;100.00;100079.17;4540932;76;28544;-81
2021/10/10 17:35:11;;;;;;;16.97;7.62;;;;;;;6.39;100.00;100079.22;4513038;76;28499;-81
2021/10/10 17:41:12;;;;;;;19.55;8.48;;;;;;;6.21;100.00;100070.98;4528180;76;28515;-83
2021/10/10 17:47:14;;;;;;;20.10;8.18;;;;;;;6.02;100.00;100062.92;4525216;76;28496;-81
2021/10/10 17:53:16;;;;;;;24.77;9.63;;;;;;;6.03;100.00;100047.23;4537750;76;28543;-88
2021/10/10 17:59:42;;;;;;;23.12;8.90;;;;;;;6.04;100.00;100060.91;4526201;76;28514;-83
2021/10/10 18:11:55;;;;;;;21.95;8.43;;;;;;;5.66;100.00;100047.39;4547027;76;28498;-84
2021/10/10 18:17:55;;;;;;;19.85;9.65;;;;;;;5.52;100.00;100051.13;4564202;76;28544;-84
2021/10/10 18:23:57;;;;;;;22.27;10.05;;;;;;;5.65;100.00;100046.58;4532613;76;28514;-87
2021/10/10 18:29:59;;;;;;;20.80;9.13;;;;;;;5.55;100.00;100050.77;4524840;76;28535;-85
2021/10/10 18:36:00;;;;;;;20.82;9.50;;;;;;;5.38;100.00;100048.67;4520955;76;28522;-85
2021/10/10 18:42:01;;;;;;;24.87;11.43;;;;;;;5.24;100.00;100056.88;4419476;78;28469;-85
2021/10/10 18:48:03;;;;;;;19.95;10.78;;;;;;;5.24;100.00;100048.88;4522787;77;28486;-83
2021/10/10 18:54:05;;;;;;;20.40;8.48;;;;;;;5.08;100.00;100045.75;4509388;77;28464;-84
2021/10/10 19:00:09;;;;;;;17.50;8.18;;;;;;;4.95;100.00;100047.63;4492454;77;28559;-85
2021/10/10 19:06:11;;;;;;;17.77;8.38;;;;;;;4.97;100.00;100053.62;4495986;77;28461;-89
2021/10/10 19:12:12;;;;;;;18.02;8.50;;;;;;;4.99;100.00;100051.61;4479066;78;28498;-84
2021/10/10 19:18:15;;;;;;;23.15;8.73;;;;;;;4.91;100.00;100050.28;4493863;77;28530;-85
2021/10/10 19:24:18;;;;;;;20.65;8.70;;;;;;;4.77;100.00;100047.80;4493286;77;28460;-82
2021/10/10 19:30:20;;;;;;;19.70;9.65;;;;;;;4.67;100.00;100047.14;4505535;78;28462;-85
2021/10/10 19:36:21;;;;;;;19.55;8.68;;;;;;;4.62;100.00;100037.50;4500126;78;28438;-86
2021/10/10 19:42:24;;;;;;;30.25;13.18;;;;;;;4.45;100.00;100038.34;4488043;77;28626;-82
2021/10/10 19:48:25;;;;;;;23.05;9.70;;;;;;;4.45;100.00;100041.00;4502200;77;28464;-79
2021/10/10 19:54:28;;;;;;;20.15;9.25;;;;;;;4.41;100.00;100037.51;4517195;77;28527;-81
2021/10/10 20:00:30;;;;;;;21.37;10.50;;;;;;;4.39;100.00;100034.19;4509354;77;28559;-82
2021/10/10 20:06:32;;;;;;;23.40;10.72;;;;;;;4.33;100.00;100035.69;4423180;78;28570;-83
2021/10/10 20:12:34;;;;;;;24.05;11.55;;;;;;;4.33;100.00;100030.36;4499729;77;28525;-81
2021/10/10 20:18:36;;;;;;;26.93;11.80;;;;;;;4.22;100.00;100022.18;4447417;78;28658;-79
2021/10/10 20:24:38;;;;;;;24.35;11.43;;;;;;;4.14;100.00;100031.00;4428783;78;28535;-78
2021/10/10 20:30:40;;;;;;;25.08;11.10;;;;;;;4.07;100.00;100024.66;4413108;78;28565;-79
2021/10/10 20:36:41;;;;;;;31.85;14.87;;;;;;;3.98;100.00;100033.63;4431924;78;28473;-83
2021/10/10 20:42:43;;;;;;;25.70;12.20;;;;;;;3.98;100.00;100028.30;4493327;77;28521;-80
2021/10/10 20:48:46;;;;;;;26.40;12.35;;;;;;;4.05;100.00;100024.81;4507992;77;28488;-77
2021/10/10 20:54:47;;;;;;;22.52;10.93;;;;;;;3.81;100.00;100013.65;4508922;77;28467;-80
2021/10/10 21:00:49;;;;;;;30.32;11.70;;;;;;;3.78;100.00;100018.46;4511022;76;28507;-78
2021/10/10 21:06:52;;;;;;;24.92;12.23;;;;;;;3.85;100.00;100011.47;4504613;77;28499;-79
2021/10/10 21:12:53;;;;;;;24.15;10.85;;;;;;;3.74;100.00;99997.48;4511958;77;28492;-77
2021/10/10 21:18:57;;;;;;;19.10;9.63;;;;;;;3.69;100.00;99997.63;4508523;77;28528;-79
2021/10/10 21:24:58;;;;;;;22.37;11.33;;;;;;;3.61;100.00;99995.31;4499812;77;28539;-77
2021/10/10 21:37:10;;;;;;;26.93;10.70;;;;;;;3.58;100.00;99986.30;4514481;77;28542;-79
2021/10/10 21:43:12;;;;;;;26.65;11.25;;;;;;;3.40;100.00;99989.08;4510590;77;28523;-79
2021/10/10 21:49:13;;;;;;;22.93;9.58;;;;;;;3.26;100.00;99982.55;4478860;77;28494;-80
2021/10/10 21:55:14;;;;;;;21.02;9.45;;;;;;;3.25;100.00;99979.55;4332332;79;28491;-78
2021/10/10 22:01:15;;;;;;;21.15;9.98;;;;;;;3.29;100.00;99974.27;4354102;79;28505;-80
2021/10/10 22:07:17;;;;;;;21.48;10.50;;;;;;;3.22;100.00;99969.25;4362708;79;28482;-77
2021/10/10 22:13:19;;;;;;;20.70;9.83;;;;;;;3.15;100.00;99961.57;4352218;79;28452;-79
2021/10/10 22:19:22;;;;;;;22.00;10.93;;;;;;;3.14;100.00;99957.25;4361436;79;28471;-78
2021/10/10 22:25:30;;;;;;;23.40;11.25;;;;;;;3.03;100.00;99951.74;4353820;79;28520;-79
2021/10/10 22:31:28;;;;;;;20.45;10.28;;;;;;;2.93;100.00;99950.52;4342105;79;28585;-78
2021/10/10 22:37:29;;;;;;;23.18;10.85;;;;;;;3.01;100.00;99956.36;4355820;79;28522;-78
2021/10/10 22:43:33;;;;;;;23.30;10.30;;;;;;;2.92;100.00;99957.67;4428996;78;28530;-79
2021/10/10 22:49:34;;;;;;;25.10;11.93;;;;;;;2.87;100.00;99945.86;4364340;78;28569;-79
2021/10/10 22:55:38;;;;;;;23.12;11.68;;;;;;;2.85;100.00;99939.84;4377207;79;28552;-78
2021/10/10 23:01:39;;;;;;;24.00;11.73;;;;;;;2.75;100.00;99932.01;4515706;76;28546;-77
2021/10/10 23:07:41;;;;;;;26.37;12.28;;;;;;;2.63;100.00;99918.16;4535377;76;28524;-78
2021/10/10 23:13:42;;;;;;;21.55;10.48;;;;;;;2.60;100.00;99917.16;4537272;76;28552;-79
2021/10/10 23:19:45;;;;;;;27.48;12.80;;;;;;;2.48;100.00;99913.44;4535150;76;28519;-78
2021/10/10 23:25:46;;;;;;;26.17;12.80;;;;;;;2.49;100.00;99912.92;4553407;76;28568;-78
2021/10/10 23:31:48;;;;;;;27.10;13.58;;;;;;;2.53;100.00;99909.47;4520750;76;28444;-79
2021/10/10 23:37:49;;;;;;;32.23;14.45;;;;;;;2.40;100.00;99903.27;4539880;76;28915;-78
2021/10/10 23:43:50;;;;;;;30.82;15.43;;;;;;;2.39;100.00;99903.75;4557596;76;28558;-78
2021/10/10 23:49:51;;;;;;;28.30;13.95;;;;;;;2.29;100.00;99901.22;4542239;76;28560;-76
2021/10/10 23:55:53;;;;;;;31.57;14.40;;;;;;;2.42;100.00;99892.00;4528441;76;28538;-79
